Time;durP1;ratioP1;P1;durP2;ratioP2;P2;SDS_P1;SDS_P2;PMS_P1;PMS_P2;Temp;Humidity;BMP_temperature;BMP_pressure;BME280_temperature;BME280_humidity;BME280_pressure;Samples;Min_cycle;Max_cycle;Signal;HPM_P1;HPM_P2
2022/05/05 00:00:49;;;;;;;4.70;3.70;;;;;;;6.99;100.00;93193.72;2107061;28;20023;-81
2022/05/05 00:01:50;;;;;;;4.35;3.47;;;;;;;6.95;100.00;93190.34;2106282;28;20028;-82
2022/05/05 00:02:51;;;;;;;4.18;3.78;;;;;;;6.95;100.00;93194.91;2106274;28;20059;-82
2022/05/05 00:03:52;;;;;;;3.60;3.35;;;;;;;7.00;100.00;93192.56;2106809;28;20031;-80
2022/05/05 00:04:53;;;;;;;4.60;4.20;;;;;;;6.86;100.00;93187.38;2107061;28;20019;-80
2022/05/05 00:05:54;;;;;;;3.97;3.65;;;;;;;6.88;100.00;93190.38;2106782;28;20035;-83
2022/05/05 00:06:55;;;;;;;3.80;3.47;;;;;;;7.04;100.00;93193.31;2115172;28;20023;-81
2022/05/05 00:07:56;;;;;;;6.60;3.72;;;;;;;7.05;100.00;93191.41;2115341;28;20065;-82
2022/05/05 00:08:58;;;;;;;4.05;3.70;;;;;;;7.00;100.00;93189.91;2107156;28;20016;-82
2022/05/05 00:14:23;;;;;;;5.70;3.95;;;;;;;6.94;100.00;93196.06;2106919;28;20027;-82
2022/05/05 00:15:20;;;;;;;5.55;3.75;;;;;;;6.95;100.00;93195.66;2109260;28;20856;-81
2022/05/05 00:16:21;;;;;;;4.72;3.80;;;;;;;6.92;100.00;93198.31;2098435;28;20024;-83
2022/05/05 00:17:22;;;;;;;6.80;4.05;;;;;;;6.89;100.00;93199.88;2098390;28;20465;-81
2022/05/05 00:18:23;;;;;;;5.68;4.20;;;;;;;6.88;100.00;93201.00;2098243;28;20028;-82
2022/05/05 00:19:26;;;;;;;4.78;4.10;;;;;;;6.81;100.00;93201.81;2098416;28;20017;-80
2022/05/05 00:20:27;;;;;;;5.43;4.20;;;;;;;6.77;100.00;93198.41;2107011;28;20055;-83
2022/05/05 00:21:28;;;;;;;4.43;4.03;;;;;;;6.82;100.00;93191.94;2106625;28;20020;-80
2022/05/05 00:22:29;;;;;;;4.05;3.60;;;;;;;6.79;100.00;93198.78;2106614;28;20016;-81
2022/05/05 00:23:30;;;;;;;4.55;4.18;;;;;;;6.84;100.00;93194.19;2098289;28;20024;-83
2022/05/05 00:24:32;;;;;;;4.07;3.67;;;;;;;6.79;100.00;93196.13;2098248;28;20548;-82
2022/05/05 00:25:33;;;;;;;4.22;3.90;;;;;;;6.81;100.00;93201.06;2103286;28;20450;-81
2022/05/05 00:26:35;;;;;;;4.50;4.10;;;;;;;6.92;100.00;93188.44;2097951;28;20028;-82
2022/05/05 00:27:36;;;;;;;4.22;3.90;;;;;;;6.92;100.00;93193.00;2112741;27;20020;-83
2022/05/05 00:28:36;;;;;;;4.18;3.88;;;;;;;7.09;100.00;93186.06;2106539;28;20016;-83
2022/05/05 00:29:37;;;;;;;4.03;3.63;;;;;;;6.98;100.00;93194.88;2106740;28;20067;-81
2022/05/05 00:30:40;;;;;;;4.40;3.72;;;;;;;6.98;100.00;93181.59;2115211;28;20030;-80
2022/05/05 00:31:40;;;;;;;4.90;4.05;;;;;;;6.96;100.00;93175.91;2108788;28;20109;-81
2022/05/05 00:32:41;;;;;;;4.32;3.92;;;;;;;6.91;100.00;93188.84;2106635;28;20055;-80
2022/05/05 00:33:42;;;;;;;6.40;4.00;;;;;;;6.92;100.00;93183.13;2098218;28;20035;-79
2022/05/05 00:34:43;;;;;;;4.15;3.75;;;;;;;6.88;100.00;93185.06;2114958;28;20020;-83
2022/05/05 00:35:44;;;;;;;4.72;4.18;;;;;;;6.89;100.00;93183.94;2114897;28;20030;-81
2022/05/05 00:36:45;;;;;;;4.30;4.00;;;;;;;6.81;100.00;93182.47;2106590;28;20027;-83
2022/05/05 00:37:46;;;;;;;3.85;3.55;;;;;;;7.02;100.00;93181.53;2106016;28;20366;-80
2022/05/05 00:38:47;;;;;;;4.10;3.70;;;;;;;6.95;100.00;93185.03;2097761;28;20016;-83
2022/05/05 00:39:48;;;;;;;4.75;4.00;;;;;;;6.91;100.00;93186.19;2089974;28;20544;-82
2022/05/05 00:40:49;;;;;;;5.10;3.72;;;;;;;6.92;100.00;93177.06;2089965;28;20112;-81
2022/05/05 00:41:50;;;;;;;4.80;3.85;;;;;;;7.01;100.00;93180.03;2098352;28;20021;-81
2022/05/05 00:42:52;;;;;;;6.43;3.85;;;;;;;6.93;100.00;93186.53;2106422;28;20457;-82
2022/05/05 00:43:53;;;;;;;4.15;3.78;;;;;;;6.95;100.00;93178.94;2097965;28;20115;-80
2022/05/05 00:44:54;;;;;;;6.20;3.67;;;;;;;6.94;100.00;93172.88;2098175;28;20397;-82
2022/05/05 00:45:55;;;;;;;4.78;4.38;;;;;;;6.82;100.00;93179.41;2106551;28;20194;-81
2022/05/05 00:46:57;;;;;;;4.45;3.72;;;;;;;6.81;100.00;93175.25;2106472;28;20480;-81
2022/05/05 00:48:06;;;;;;;12.00;3.90;;;;;;;6.67;100.00;93174.56;2106644;28;20020;-81
2022/05/05 00:49:07;;;;;;;3.80;3.50;;;;;;;6.65;100.00;93171.56;2098891;28;20033;-82
2022/05/05 00:50:08;;;;;;;3.85;3.55;;;;;;;6.58;100.00;93172.34;2097391;28;20030;-81
2022/05/05 00:51:10;;;;;;;4.05;3.63;;;;;;;6.72;100.00;93176.84;2089976;28;20088;-82
2022/05/05 00:52:11;;;;;;;4.93;3.55;;;;;;;6.59;100.00;93175.78;2090088;28;20021;-82
2022/05/05 00:53:12;;;;;;;5.05;3.67;;;;;;;6.59;100.00;93175.78;2089892;28;20029;-81
2022/05/05 00:54:13;;;;;;;4.22;3.25;;;;;;;6.57;100.00;93178.81;2089786;28;20060;-84
2022/05/05 00:55:14;;;;;;;3.85;3.55;;;;;;;6.52;100.00;93185.28;2098064;28;20107;-81
2022/05/05 00:56:16;;;;;;;4.20;3.35;;;;;;;6.46;100.00;93181.53;2114830;28;20015;-80
2022/05/05 00:57:17;;;;;;;3.85;3.45;;;;;;;6.41;100.00;93179.28;2105521;28;20110;-82
2022/05/05 00:58:19;;;;;;;4.25;3.85;;;;;;;6.36;100.00;93190.28;2098168;28;20073;-81
2022/05/05 00:59:21;;;;;;;3.70;3.40;;;;;;;6.30;100.00;93194.50;2106498;28;20118;-80
2022/05/05 01:00:23;;;;;;;3.80;3.50;;;;;;;6.38;100.00;93187.25;2106538;28;20484;-81
2022/05/05 01:01:24;;;;;;;3.83;3.45;;;;;;;6.41;100.00;93186.47;2105779;28;20027;-81
2022/05/05 01:02:25;;;;;;;3.97;3.58;;;;;;;6.39;100.00;93186.88;2106169;28;20035;-82
2022/05/05 01:03:26;;;;;;;3.90;3.60;;;;;;;6.36;100.00;93186.88;2106314;28;20027;-83
2022/05/05 01:04:27;;;;;;;4.78;3.83;;;;;;;6.29;100.00;93187.69;2098023;28;20077;-83
2022/05/05 01:05:29;;;;;;;4.78;4.28;;;;;;;6.37;100.00;93186.50;2089780;28;20029;-81
2022/05/05 01:06:32;;;;;;;3.92;3.63;;;;;;;6.40;100.00;93191.03;2090032;28;20021;-80
2022/05/05 01:07:34;;;;;;;7.53;3.97;;;;;;;6.41;100.00;93192.56;2106238;28;20404;-80
2022/05/05 01:08:36;;;;;;;4.35;3.80;;;;;;;6.49;100.00;93185.28;2089996;28;20021;-80
2022/05/05 01:09:38;;;;;;;3.78;3.47;;;;;;;6.52;100.00;93187.19;2090086;28;20021;-83
2022/05/05 01:10:39;;;;;;;4.25;3.85;;;;;;;6.54;100.00;93192.84;2089969;28;20025;-80
2022/05/05 01:11:41;;;;;;;3.80;3.40;;;;;;;6.57;100.00;93192.06;2098010;28;20024;-81
2022/05/05 01:12:42;;;;;;;4.93;3.85;;;;;;;6.50;100.00;93184.91;2106401;28;20107;-83
2022/05/05 01:13:43;;;;;;;5.15;3.95;;;;;;;6.45;100.00;93189.84;2105818;28;20024;-83
2022/05/05 01:14:44;;;;;;;4.32;3.85;;;;;;;6.54;100.00;93183.00;2105694;28;20016;-83
2022/05/05 01:15:46;;;;;;;4.10;3.67;;;;;;;6.57;100.00;93187.53;2097880;28;20048;-79
2022/05/05 01:16:47;;;;;;;3.92;3.63;;;;;;;6.64;100.00;93181.44;2090052;28;20021;-80
2022/05/05 01:17:48;;;;;;;3.90;3.60;;;;;;;6.62;100.00;93186.34;2106187;28;20020;-80
2022/05/05 01:18:51;;;;;;;4.65;3.70;;;;;;;6.62;100.00;93193.56;2114653;28;20022;-81
2022/05/05 01:19:52;;;;;;;4.03;3.72;;;;;;;6.60;100.00;93180.69;2098343;28;20469;-81
2022/05/05 01:20:54;;;;;;;4.10;3.70;;;;;;;6.57;100.00;93181.47;2101836;28;20023;-83
2022/05/05 01:21:57;;;;;;;5.75;4.13;;;;;;;6.57;100.00;93178.81;2098169;28;20020;-81
2022/05/05 01:22:58;;;;;;;7.45;3.83;;;;;;;6.57;100.00;93187.53;2089993;28;20489;-81
2022/05/05 01:23:59;;;;;;;4.13;3.83;;;;;;;6.65;100.00;93182.19;2114617;28;20065;-83
2022/05/05 01:29:01;;;;;;;3.53;3.22;;;;;;;6.69;100.00;93185.56;2115235;28;20107;-81
2022/05/05 01:30:06;;;;;;;3.50;3.22;;;;;;;6.69;100.00;93185.56;2106122;28;20388;-82
2022/05/05 01:31:07;;;;;;;3.85;3.55;;;;;;;6.73;100.00;93188.97;2090673;28;20028;-81
2022/05/05 01:32:08;;;;;;;3.95;3.35;;;;;;;6.79;100.00;93185.50;2098128;28;20107;-83
2022/05/05 01:33:14;;;;;;;3.90;3.38;;;;;;;6.86;100.00;93187.38;2097960;28;20032;-81
2022/05/05 01:34:16;;;;;;;6.05;3.65;;;;;;;6.98;100.00;93183.47;2106974;28;20066;-83
2022/05/05 01:35:17;;;;;;;4.10;3.70;;;;;;;6.94;100.00;93186.16;2097796;28;20024;-82
2022/05/05 01:36:18;;;;;;;5.95;3.53;;;;;;;6.91;100.00;93184.28;2104210;28;20040;-81
2022/05/05 01:37:19;;;;;;;3.63;3.33;;;;;;;6.82;100.00;93178.66;2105982;28;20484;-82
2022/05/05 01:38:23;;;;;;;3.83;3.40;;;;;;;6.77;100.00;93187.78;2096917;28;20071;-80
2022/05/05 01:39:24;;;;;;;5.40;3.50;;;;;;;6.74;100.00;93182.50;2111212;27;20019;-81
2022/05/05 01:40:25;;;;;;;4.63;3.83;;;;;;;6.80;100.00;93186.25;2122900;27;20026;-80
2022/05/05 01:41:26;;;;;;;4.05;3.75;;;;;;;6.83;100.00;93180.16;2114540;28;20027;-80
2022/05/05 01:42:28;;;;;;;4.72;3.70;;;;;;;6.80;100.00;93184.38;2106044;28;20069;-81
2022/05/05 01:43:29;;;;;;;3.55;3.25;;;;;;;6.86;100.00;93187.38;2106449;28;20157;-80
2022/05/05 01:44:30;;;;;;;4.25;3.85;;;;;;;6.78;100.00;93180.59;2097856;28;20142;-83
2022/05/05 01:45:31;;;;;;;3.80;3.50;;;;;;;6.76;100.00;93183.63;2103097;28;20043;-80
2022/05/05 01:46:32;;;;;;;4.05;3.20;;;;;;;6.81;100.00;93180.56;2109110;28;20032;-83
2022/05/05 01:47:33;;;;;;;3.70;3.40;;;;;;;6.92;100.00;93191.09;2106060;28;20024;-83
2022/05/05 01:48:35;;;;;;;4.03;3.63;;;;;;;6.89;100.00;93180.50;2105919;28;20027;-81
2022/05/05 01:49:36;;;;;;;4.15;3.75;;;;;;;6.81;100.00;93193.09;2097342;28;20017;-83
2022/05/05 01:50:37;;;;;;;4.20;3.83;;;;;;;6.78;100.00;93183.25;2105969;28;20023;-83
2022/05/05 01:51:39;;;;;;;4.80;4.30;;;;;;;6.75;100.00;93184.75;2106093;28;20362;-80
2022/05/05 01:52:39;;;;;;;4.10;3.70;;;;;;;6.80;100.00;93183.59;2106193;28;20106;-84
2022/05/05 01:53:40;;;;;;;5.93;4.03;;;;;;;6.79;100.00;93187.41;2112395;28;20023;-82
2022/05/05 01:54:41;;;;;;;3.92;3.40;;;;;;;6.79;100.00;93187.41;2097628;28;20735;-82
2022/05/05 01:55:42;;;;;;;4.55;4.13;;;;;;;6.79;100.00;93185.50;2097354;28;20048;-84
2022/05/05 01:56:43;;;;;;;4.68;4.28;;;;;;;6.80;100.00;93189.69;2105951;28;20055;-81
2022/05/05 01:57:44;;;;;;;4.05;3.60;;;;;;;6.92;100.00;93185.03;2109134;28;20042;-81
2022/05/05 01:58:45;;;;;;;5.28;4.40;;;;;;;6.92;100.00;93187.69;2106006;28;20868;-81
2022/05/05 01:59:46;;;;;;;6.57;4.78;;;;;;;6.88;100.00;93193.03;2097715;28;20036;-80
2022/05/05 02:00:47;;;;;;;5.05;4.22;;;;;;;6.87;100.00;93188.88;2104956;28;20054;-81
2022/05/05 02:01:48;;;;;;;5.75;4.40;;;;;;;7.06;100.00;93185.69;2114078;28;20023;-83
2022/05/05 02:02:50;;;;;;;4.95;4.00;;;;;;;7.21;100.00;93181.03;2114119;28;20027;-80
2022/05/05 02:03:51;;;;;;;5.85;4.10;;;;;;;7.16;100.00;93186.78;2109728;28;20476;-81
2022/05/05 02:04:52;;;;;;;5.10;4.10;;;;;;;7.10;100.00;93184.91;2097595;28;20027;-81
2022/05/05 02:05:53;;;;;;;6.55;4.07;;;;;;;7.05;100.00;93186.09;2089296;28;20063;-82
2022/05/05 02:06:54;;;;;;;6.70;4.20;;;;;;;7.05;100.00;93188.75;2097502;28;20025;-80
2022/05/05 02:07:55;;;;;;;4.93;4.47;;;;;;;7.01;100.00;93190.66;2097674;28;20137;-83
2022/05/05 02:08:57;;;;;;;5.03;4.53;;;;;;;7.00;100.00;93189.16;2097767;28;20020;-80
2022/05/05 02:10:01;;;;;;;5.32;4.13;;;;;;;6.98;100.00;93189.56;2106151;28;20031;-80
2022/05/05 02:11:03;;;;;;;5.82;4.47;;;;;;;6.89;100.00;93183.94;2114188;28;20107;-82
2022/05/05 02:12:05;;;;;;;4.35;3.95;;;;;;;6.82;100.00;93183.97;2105981;28;20035;-82
2022/05/05 02:13:09;;;;;;;5.10;4.22;;;;;;;6.81;100.00;93193.84;2103271;28;20020;-81
2022/05/05 02:14:10;;;;;;;6.43;4.18;;;;;;;6.79;100.00;93185.50;2097325;28;20045;-81
2022/05/05 02:15:12;;;;;;;7.40;4.53;;;;;;;6.80;100.00;93189.69;2105879;28;20024;-84
2022/05/05 02:16:13;;;;;;;5.03;4.05;;;;;;;6.86;100.00;93190.03;2099247;28;20134;-82
2022/05/05 02:17:14;;;;;;;6.70;4.60;;;;;;;6.92;100.00;93193.00;2104695;28;20019;-83
2022/05/05 02:18:16;;;;;;;4.78;4.15;;;;;;;6.92;100.00;93195.66;2105900;28;20032;-83
2022/05/05 02:19:17;;;;;;;6.03;4.03;;;;;;;6.94;100.00;93193.41;2097345;28;20459;-80
2022/05/05 02:20:18;;;;;;;4.68;3.80;;;;;;;6.89;100.00;93193.78;2089444;28;20029;-79
2022/05/05 02:21:19;;;;;;;4.60;3.80;;;;;;;6.87;100.00;93190.78;2101062;28;20472;-80
2022/05/05 02:22:20;;;;;;;6.53;3.97;;;;;;;6.90;100.00;93190.75;2119010;28;20026;-79
2022/05/05 02:23:32;;;;;;;5.72;4.30;;;;;;;6.86;100.00;93195.34;2109547;28;20105;-81
2022/05/05 02:24:33;;;;;;;4.43;4.03;;;;;;;6.88;100.00;93193.03;2099137;28;20032;-80
2022/05/05 02:25:35;;;;;;;4.72;4.28;;;;;;;6.84;100.00;93189.63;2105458;28;20111;-79
2022/05/05 02:26:36;;;;;;;4.78;3.90;;;;;;;6.91;100.00;93194.16;2105546;28;20795;-82
2022/05/05 02:27:52;;;;;;;4.35;3.95;;;;;;;7.02;100.00;93192.94;2105758;28;20071;-80
2022/05/05 02:28:53;;;;;;;4.72;4.22;;;;;;;6.94;100.00;93191.47;2116401;28;20062;-83
2022/05/05 02:29:54;;;;;;;8.90;4.40;;;;;;;6.90;100.00;93192.66;2105666;28;20030;-83
2022/05/05 02:30:55;;;;;;;5.82;3.50;;;;;;;6.90;100.00;93193.41;2097275;28;20021;-80
2022/05/05 02:31:56;;;;;;;6.45;4.00;;;;;;;6.91;100.00;93196.81;2080949;28;20021;-80
2022/05/05 02:32:57;;;;;;;4.28;3.88;;;;;;;6.96;100.00;93191.09;2089097;28;20171;-83
2022/05/05 02:33:58;;;;;;;6.32;4.22;;;;;;;7.03;100.00;93193.72;2097511;28;20056;-79
2022/05/05 02:34:59;;;;;;;5.18;4.20;;;;;;;7.01;100.00;93190.66;2097404;28;20408;-83
2022/05/05 02:38:46;;;;;;;4.53;3.95;;;;;;;7.11;100.00;93187.16;2099514;28;20119;-80
2022/05/05 02:39:47;;;;;;;4.40;3.58;;;;;;;7.08;100.00;93182.66;2098319;28;20025;-80
2022/05/05 02:40:48;;;;;;;3.92;3.55;;;;;;;7.11;100.00;93181.84;2089160;28;20025;-82
2022/05/05 02:41:49;;;;;;;7.65;5.15;;;;;;;7.13;100.00;93187.53;2097479;28;20368;-84
2022/05/05 02:42:50;;;;;;;5.20;3.97;;;;;;;7.13;100.00;93186.78;2097287;28;20472;-82
2022/05/05 02:43:52;;;;;;;4.85;3.80;;;;;;;7.14;100.00;93178.41;2089308;28;20025;-82
2022/05/05 02:44:52;;;;;;;4.88;3.85;;;;;;;7.13;100.00;93181.47;2097451;28;20082;-82
2022/05/05 02:45:53;;;;;;;4.25;3.85;;;;;;;7.13;100.00;93186.78;2097368;28;20047;-82
2022/05/05 02:46:54;;;;;;;4.32;3.67;;;;;;;7.18;100.00;93181.06;2097460;28;20025;-83
2022/05/05 02:47:55;;;;;;;5.00;3.80;;;;;;;7.18;100.00;93183.72;2089103;28;20025;-81
2022/05/05 02:48:56;;;;;;;5.28;3.90;;;;;;;7.20;100.00;93184.84;2088962;28;20032;-80
2022/05/05 02:49:57;;;;;;;11.73;4.05;;;;;;;7.18;100.00;93183.72;2080037;28;20029;-81
2022/05/05 02:50:58;;;;;;;4.30;3.90;;;;;;;7.17;100.00;93185.63;2089549;28;20059;-81
2022/05/05 02:51:59;;;;;;;4.30;3.90;;;;;;;7.18;100.00;93176.50;2097549;28;20032;-81
2022/05/05 02:53:00;;;;;;;5.47;4.10;;;;;;;7.20;100.00;93184.06;2097343;28;20025;-80
2022/05/05 02:55:22;;;;;;;4.75;4.07;;;;;;;7.17;100.00;93180.31;2114292;28;20032;-80
2022/05/05 02:56:23;;;;;;;4.93;4.00;;;;;;;7.21;100.00;93175.72;2105663;28;20024;-82
2022/05/05 02:57:24;;;;;;;4.30;3.60;;;;;;;7.24;100.00;93179.47;2094676;28;20139;-81
2022/05/05 02:58:27;;;;;;;4.15;3.75;;;;;;;7.24;100.00;93171.50;2089172;28;20025;-84
2022/05/05 02:59:28;;;;;;;5.30;4.03;;;;;;;7.29;100.00;93179.06;2081351;28;20026;-83
2022/05/05 03:00:29;;;;;;;4.15;3.75;;;;;;;7.30;100.00;93173.34;2089111;28;20024;-83
2022/05/05 03:01:29;;;;;;;4.93;3.63;;;;;;;7.31;100.00;93174.09;2097509;28;20489;-82
2022/05/05 03:02:31;;;;;;;5.78;3.60;;;;;;;7.26;100.00;93167.31;2105142;28;20444;-81
2022/05/05 03:03:32;;;;;;;4.70;4.30;;;;;;;7.30;100.00;93164.63;2097433;28;20029;-81
2022/05/05 03:04:36;;;;;;;4.03;3.63;;;;;;;7.31;100.00;93168.78;2097490;28;20027;-82
2022/05/05 03:05:38;;;;;;;4.32;3.92;;;;;;;7.31;100.00;93174.88;2097600;28;20021;-83
2022/05/05 03:06:39;;;;;;;5.00;4.18;;;;;;;7.33;100.00;93169.13;2089428;28;20052;-81
2022/05/05 03:07:44;;;;;;;5.38;4.45;;;;;;;7.31;100.00;93168.78;2098481;28;20027;-81
2022/05/05 03:08:45;;;;;;;3.63;3.33;;;;;;;7.27;100.00;93176.78;2099751;28;20020;-82
2022/05/05 03:09:46;;;;;;;4.28;3.80;;;;;;;7.24;100.00;93169.63;2099066;28;20024;-84
2022/05/05 03:10:47;;;;;;;4.05;3.55;;;;;;;7.29;100.00;93171.09;2098792;28;20020;-80
2022/05/05 03:11:48;;;;;;;4.03;3.65;;;;;;;7.25;100.00;93173.78;2107226;28;20399;-82
2022/05/05 03:12:49;;;;;;;4.68;3.97;;;;;;;7.20;100.00;93166.22;2098770;28;20025;-83
2022/05/05 03:13:50;;;;;;;4.35;3.75;;;;;;;7.25;100.00;93175.69;2098016;28;20016;-83
2022/05/05 03:14:51;;;;;;;3.97;3.58;;;;;;;7.28;100.00;93170.31;2115413;27;20031;-83
2022/05/05 03:15:52;;;;;;;4.53;4.10;;;;;;;7.31;100.00;93174.09;2124121;27;20015;-81
2022/05/05 03:16:53;;;;;;;3.63;3.25;;;;;;;7.32;100.00;93170.28;2107327;28;20028;-83
2022/05/05 03:17:54;;;;;;;5.47;3.83;;;;;;;7.31;100.00;93166.13;2107303;28;20024;-80
2022/05/05 03:18:55;;;;;;;4.32;3.92;;;;;;;7.26;100.00;93172.63;2107257;28;20042;-80
2022/05/05 03:19:56;;;;;;;4.60;3.75;;;;;;;7.23;100.00;93170.75;2107366;28;20027;-83
2022/05/05 03:20:57;;;;;;;3.92;3.63;;;;;;;7.23;100.00;93168.09;2115468;28;20495;-81
2022/05/05 03:21:58;;;;;;;6.07;4.00;;;;;;;7.30;100.00;93169.94;2098669;28;20111;-83
2022/05/05 03:22:59;;;;;;;3.75;3.42;;;;;;;7.35;100.00;93166.09;2106979;28;20560;-81
2022/05/05 03:24:00;;;;;;;3.80;3.50;;;;;;;7.36;100.00;93164.94;2107194;28;20032;-81
2022/05/05 03:25:02;;;;;;;4.32;3.92;;;;;;;7.22;100.00;93169.25;2095342;28;20012;-79
2022/05/05 03:26:04;;;;;;;3.95;3.63;;;;;;;7.27;100.00;93163.50;2097412;28;20066;-81
2022/05/05 03:27:05;;;;;;;6.13;3.92;;;;;;;7.36;100.00;93171.03;2098044;28;20059;-81
2022/05/05 03:28:06;;;;;;;4.05;3.75;;;;;;;7.39;100.00;93170.25;2106818;28;20157;-82
2022/05/05 03:29:07;;;;;;;3.97;3.25;;;;;;;7.38;100.00;93163.44;2106948;28;20077;-83
2022/05/05 03:30:08;;;;;;;4.10;3.70;;;;;;;7.29;100.00;93160.47;2115557;28;20038;-78
2022/05/05 03:31:09;;;;;;;4.18;3.78;;;;;;;7.32;100.00;93170.28;2114934;28;20077;-83
2022/05/05 03:32:10;;;;;;;5.28;4.50;;;;;;;7.32;100.00;93173.72;2098707;28;20046;-83
2022/05/05 03:33:11;;;;;;;4.38;3.97;;;;;;;7.29;100.00;93169.19;2107001;28;20043;-82
2022/05/05 03:34:12;;;;;;;4.70;3.97;;;;;;;7.32;100.00;93167.63;2107228;28;20047;-83
2022/05/05 03:35:13;;;;;;;3.85;3.58;;;;;;;7.31;100.00;93171.44;2107201;28;20490;-81
2022/05/05 03:36:14;;;;;;;9.00;3.95;;;;;;;7.33;100.00;93171.81;2115540;28;20020;-83
2022/05/05 03:37:15;;;;;;;5.25;3.75;;;;;;;7.37;100.00;93166.47;2104112;28;20028;-81
2022/05/05 03:38:16;;;;;;;4.15;3.75;;;;;;;7.38;100.00;93163.44;2106345;28;20905;-82
2022/05/05 03:39:17;;;;;;;4.00;3.70;;;;;;;7.37;100.00;93172.53;2107063;28;20027;-83
2022/05/05 03:40:18;;;;;;;4.32;3.67;;;;;;;7.36;100.00;93167.63;2098697;28;20135;-82
2022/05/05 03:41:20;;;;;;;4.57;3.75;;;;;;;7.39;100.00;93170.25;2110353;28;20043;-82
2022/05/05 03:42:21;;;;;;;6.18;3.70;;;;;;;7.37;100.00;93169.88;2115609;28;20083;-82
2022/05/05 03:43:22;;;;;;;4.40;4.00;;;;;;;7.27;100.00;93168.06;2115542;28;20084;-83
2022/05/05 03:44:23;;;;;;;4.30;3.90;;;;;;;7.34;100.00;93168.00;2107184;28;20019;-80
2022/05/05 03:45:24;;;;;;;4.20;3.88;;;;;;;7.35;100.00;93164.19;2107204;28;20125;-83
2022/05/05 03:46:25;;;;;;;5.22;3.70;;;;;;;7.39;100.00;93169.50;2098635;28;20028;-83
2022/05/05 03:47:26;;;;;;;5.05;4.22;;;;;;;7.36;100.00;93171.03;2106952;28;20020;-83
2022/05/05 03:48:27;;;;;;;5.38;4.10;;;;;;;7.34;100.00;93169.91;2098595;28;20115;-83
2022/05/05 03:49:28;;;;;;;4.35;3.92;;;;;;;7.24;100.00;93174.16;2098094;28;20025;-81
2022/05/05 03:50:29;;;;;;;6.07;4.35;;;;;;;7.27;100.00;93170.72;2098230;28;20023;-83
2022/05/05 03:51:30;;;;;;;4.90;3.90;;;;;;;7.40;100.00;93168.34;2098551;28;20025;-81
2022/05/05 03:52:31;;;;;;;6.30;4.20;;;;;;;7.32;100.00;93171.06;2090399;28;20032;-81
2022/05/05 03:53:33;;;;;;;4.95;3.90;;;;;;;7.59;100.00;93165.09;2108555;27;20047;-80
2022/05/05 03:54:34;;;;;;;4.18;3.88;;;;;;;7.49;100.00;93161.41;2107163;28;20051;-83
2022/05/05 03:55:37;;;;;;;4.80;3.80;;;;;;;7.47;100.00;93157.66;2107011;28;20386;-82
2022/05/05 03:56:38;;;;;;;3.80;3.50;;;;;;;7.46;100.00;93170.19;2107511;27;20024;-84
2022/05/05 03:57:39;;;;;;;5.18;3.67;;;;;;;7.64;100.00;93158.59;2101907;28;20118;-82
2022/05/05 03:58:40;;;;;;;5.85;4.05;;;;;;;7.61;100.00;93164.72;2106863;28;20020;-82
2022/05/05 03:59:41;;;;;;;4.10;3.70;;;;;;;7.56;100.00;93157.94;2098691;28;20066;-82
2022/05/05 04:00:43;;;;;;;4.65;4.18;;;;;;;7.51;100.00;93155.72;2090322;28;20028;-82
2022/05/05 04:01:44;;;;;;;4.47;4.00;;;;;;;7.47;100.00;93161.06;2089344;28;20535;-82
2022/05/05 04:03:30;;;;;;;4.70;4.30;;;;;;;7.39;100.00;93161.50;2089824;28;20070;-83
2022/05/05 04:04:05;;;;;;;4.18;3.45;;;;;;;7.42;100.00;93166.03;2104012;28;20016;-83
2022/05/05 04:05:07;;;;;;;6.28;3.97;;;;;;;7.46;100.00;93158.78;2098383;28;20408;-84
2022/05/05 04:06:08;;;;;;;4.20;3.80;;;;;;;7.41;100.00;93167.19;2091962;28;20028;-84
2022/05/05 04:07:09;;;;;;;4.65;3.88;;;;;;;7.40;100.00;93166.44;2106835;28;20024;-85
2022/05/05 04:08:10;;;;;;;8.30;3.97;;;;;;;7.43;100.00;93162.25;2098490;28;20484;-81
2022/05/05 04:09:12;;;;;;;6.38;3.75;;;;;;;7.44;100.00;93167.16;2106830;28;20024;-84
2022/05/05 04:10:12;;;;;;;5.75;4.07;;;;;;;7.40;100.00;93155.78;2098537;28;20477;-84
2022/05/05 04:11:13;;;;;;;4.05;3.60;;;;;;;7.41;100.00;93164.53;2113524;27;20015;-82
2022/05/05 04:12:14;;;;;;;4.10;3.78;;;;;;;7.40;100.00;93158.44;2108023;28;20024;-81
2022/05/05 04:13:15;;;;;;;4.95;4.53;;;;;;;7.46;100.00;93159.56;2090083;28;20017;-81
2022/05/05 04:14:16;;;;;;;5.90;4.45;;;;;;;7.37;100.00;93156.56;2088966;28;20053;-83
2022/05/05 04:15:17;;;;;;;4.75;4.35;;;;;;;7.42;100.00;93158.06;2090050;28;20289;-85
2022/05/05 04:16:19;;;;;;;5.88;5.28;;;;;;;7.47;100.00;93157.66;2106821;28;20032;-85
2022/05/05 04:17:20;;;;;;;5.30;4.80;;;;;;;7.37;100.00;93163.78;2115270;28;20821;-82
2022/05/05 04:18:21;;;;;;;5.28;4.80;;;;;;;7.38;100.00;93160.00;2106657;28;20055;-83
2022/05/05 04:19:22;;;;;;;5.78;5.07;;;;;;;7.38;100.00;93163.44;2097427;28;20055;-83
2022/05/05 04:20:23;;;;;;;5.45;4.95;;;;;;;7.43;100.00;93170.22;2115253;28;20065;-81
2022/05/05 04:21:25;;;;;;;5.45;4.57;;;;;;;7.39;100.00;93167.59;2123727;27;20053;-80
2022/05/05 04:22:26;;;;;;;6.55;4.75;;;;;;;7.34;100.00;93162.69;2115398;28;20030;-82
2022/05/05 04:23:27;;;;;;;4.97;3.92;;;;;;;7.36;100.00;93168.38;2106667;28;20020;-84
2022/05/05 04:24:28;;;;;;;4.55;4.15;;;;;;;7.36;100.00;93170.28;2098238;28;20023;-83
2022/05/05 04:25:30;;;;;;;11.07;4.20;;;;;;;7.38;100.00;93163.44;2110326;28;20068;-82
2022/05/05 04:26:31;;;;;;;5.28;4.18;;;;;;;7.44;100.00;93167.16;2089927;28;20087;-81
2022/05/05 04:27:32;;;;;;;6.28;4.50;;;;;;;7.46;100.00;93170.19;2099061;28;20028;-81
2022/05/05 04:28:34;;;;;;;13.82;10.95;;;;;;;7.47;100.00;93171.69;2103687;28;20023;-81
2022/05/05 04:29:35;;;;;;;10.50;9.50;;;;;;;7.44;100.00;93169.81;2105500;28;20023;-80
2022/05/05 04:30:37;;;;;;;11.63;7.25;;;;;;;7.47;100.00;93165.63;2109849;28;20034;-82
2022/05/05 04:31:38;;;;;;;6.63;5.93;;;;;;;7.44;100.00;93169.06;2101355;28;20687;-84
2022/05/05 04:32:39;;;;;;;4.78;4.38;;;;;;;7.42;100.00;93172.13;2087720;28;20071;-83
2022/05/05 04:33:41;;;;;;;5.88;5.20;;;;;;;7.44;100.00;93175.13;2096307;28;20114;-84
2022/05/05 04:34:42;;;;;;;10.48;9.43;;;;;;;7.35;100.00;93169.53;2104372;28;20063;-83
2022/05/05 04:35:44;;;;;;;9.77;8.63;;;;;;;7.44;100.00;93172.47;2094307;28;20029;-81
2022/05/05 04:36:45;;;;;;;10.23;9.27;;;;;;;7.45;100.00;93173.97;2097089;28;20079;-83
2022/05/05 04:37:47;;;;;;;8.30;7.40;;;;;;;7.37;100.00;93169.13;2104883;28;20034;-81
2022/05/05 04:38:49;;;;;;;5.68;5.18;;;;;;;7.41;100.00;93173.25;2112534;27;20034;-85
2022/05/05 04:39:49;;;;;;;5.75;5.13;;;;;;;7.54;100.00;93173.53;2108860;28;20711;-82
2022/05/05 04:40:51;;;;;;;7.03;6.35;;;;;;;7.53;100.00;93172.00;2113011;28;20024;-84
2022/05/05 04:41:51;;;;;;;6.13;5.38;;;;;;;7.51;100.00;93172.41;2096685;28;20727;-82
2022/05/05 04:42:52;;;;;;;9.93;7.63;;;;;;;7.54;100.00;93176.19;2104532;28;20662;-82
2022/05/05 04:43:53;;;;;;;24.83;20.40;;;;;;;7.54;100.00;93168.19;2120414;27;20042;-83
2022/05/05 04:44:54;;;;;;;27.40;22.65;;;;;;;7.44;100.00;93172.47;2109524;28;20027;-83
2022/05/05 04:45:56;;;;;;;23.50;18.48;;;;;;;7.45;100.00;93175.88;2104967;28;20115;-80
2022/05/05 04:46:57;;;;;;;14.65;11.82;;;;;;;7.49;100.00;93172.03;2088325;28;20686;-82
2022/05/05 04:47:58;;;;;;;18.77;15.90;;;;;;;7.58;100.00;93176.91;2088456;28;20064;-82
2022/05/05 04:48:59;;;;;;;18.85;16.25;;;;;;;7.55;100.00;93180.34;2098856;28;20048;-82
2022/05/05 04:50:00;;;;;;;14.52;13.07;;;;;;;7.63;100.00;93175.72;2113210;27;20027;-83
2022/05/05 04:51:01;;;;;;;12.38;10.32;;;;;;;7.65;100.00;93174.19;2105887;28;20373;-84
2022/05/05 04:52:04;;;;;;;9.68;8.30;;;;;;;7.61;100.00;93178.03;2097143;28;20039;-81
2022/05/05 04:53:05;;;;;;;9.45;8.55;;;;;;;7.63;100.00;93171.16;2097365;28;20024;-84
2022/05/05 04:54:06;;;;;;;11.15;8.13;;;;;;;7.61;100.00;93175.38;2090704;28;20529;-81
2022/05/05 04:55:08;;;;;;;8.38;6.40;;;;;;;7.60;100.00;93173.88;2088867;28;20042;-83
2022/05/05 04:56:10;;;;;;;5.78;5.28;;;;;;;7.58;100.00;93179.56;2105718;28;20020;-81
2022/05/05 04:57:11;;;;;;;5.53;5.03;;;;;;;7.60;100.00;93184.50;2106839;28;20027;-81
2022/05/05 04:58:12;;;;;;;12.82;4.55;;;;;;;7.58;100.00;93176.91;2097407;28;20052;-83
2022/05/05 04:59:13;;;;;;;5.00;4.60;;;;;;;7.58;100.00;93176.91;2105431;28;20743;-82
2022/05/05 05:00:14;;;;;;;6.97;4.45;;;;;;;7.57;100.00;93176.16;2097272;28;20067;-84
2022/05/05 05:01:15;;;;;;;4.25;3.95;;;;;;;7.57;100.00;93181.47;2105410;28;20055;-85